Terminal Aerodrome Forecast
Issued by NWS

Home | Current Version | Previous Version | Text Only | Print | Product List | Glossary On
Versions: 1 2 3 4 5 6 7 8 9 10 11 12 13
000
FTUS41 KCAR 221729
TAFBHB
TAF
KBHB 221729Z 2218/2318 16005KT 3SM RA BKN010 OVC050
     FM221900 VRB02KT 2SM RA OVC008
      TEMPO 2219/2222 1SM +RA OVC003
     FM230100 34009G22KT P6SM OVC015
     FM230700 32015G25KT P6SM SCT250=

USA.gov is the U.S. government's official web portal to all federal, state and local government web resources and services.